Time;durP1;ratioP1;P1;durP2;ratioP2;P2;SDS_P1;SDS_P2;PMS_P1;PMS_P2;Temp;Humidity;BMP_temperature;BMP_pressure;BME280_temperature;BME280_humidity;BME280_pressure;Samples;Min_cycle;Max_cycle;Signal;HPM_P1;HPM_P2
2024/01/24 13:46:19;;;;;;;24.73;5.55;;;16.10;99.90;;;;;;4579998;19;20459;-72
2024/01/24 13:47:55;;;;;;;14.57;5.13;;;16.10;99.90;;;;;;4591177;19;20025;-73
2024/01/24 13:49:29;;;;;;;17.75;6.07;;;16.10;99.90;;;;;;4595948;19;20006;-72
2024/01/24 13:51:03;;;;;;;25.30;6.28;;;16.10;99.90;;;;;;4595915;19;20066;-72
2024/01/24 13:52:38;;;;;;;20.38;5.85;;;16.10;99.90;;;;;;4594792;19;20282;-72
2024/01/24 13:54:12;;;;;;;24.70;7.82;;;16.10;99.90;;;;;;4595443;19;19998;-73
2024/01/24 13:55:47;;;;;;;23.50;6.55;;;16.10;99.90;;;;;;4594869;19;20481;-71
2024/01/24 13:57:22;;;;;;;20.63;7.47;;;16.10;99.90;;;;;;4594369;19;20301;-72
2024/01/24 13:58:56;;;;;;;17.02;6.75;;;16.10;99.90;;;;;;4595122;19;20014;-72
2024/01/24 14:00:30;;;;;;;27.00;8.35;;;16.10;99.90;;;;;;4593173;19;20089;-72
2024/01/24 14:02:06;;;;;;;21.02;6.93;;;16.10;99.90;;;;;;4595372;19;20016;-72
2024/01/24 14:03:40;;;;;;;17.35;6.70;;;16.10;99.90;;;;;;4593977;19;20014;-72
2024/01/24 14:05:14;;;;;;;17.85;8.32;;;16.10;99.90;;;;;;4594849;19;19999;-72
2024/01/24 14:06:49;;;;;;;18.98;7.78;;;16.10;99.90;;;;;;4595444;19;20082;-75
2024/01/24 14:08:23;;;;;;;20.50;8.30;;;16.10;99.90;;;;;;4595445;19;20021;-78
2024/01/24 14:09:57;;;;;;;17.23;8.93;;;16.10;99.90;;;;;;4595426;19;20035;-77
2024/01/24 14:11:33;;;;;;;19.80;8.98;;;16.10;99.90;;;;;;4595370;19;20039;-78
2024/01/24 14:13:07;;;;;;;25.77;9.60;;;16.10;99.90;;;;;;4595355;19;19999;-73
2024/01/24 14:14:41;;;;;;;18.60;7.88;;;16.10;99.90;;;;;;4595293;19;20013;-72
2024/01/24 14:16:18;;;;;;;15.80;8.23;;;16.10;99.90;;;;;;4593971;19;20025;-71
2024/01/24 14:17:52;;;;;;;21.27;8.30;;;16.10;99.90;;;;;;4595123;19;20094;-78
2024/01/24 14:19:26;;;;;;;24.40;8.35;;;16.20;99.90;;;;;;4595250;19;20027;-73
2024/01/24 14:21:01;;;;;;;21.58;9.13;;;16.30;99.90;;;;;;4595383;19;20066;-73
2024/01/24 14:22:36;;;;;;;23.35;9.27;;;16.30;99.90;;;;;;4595598;19;20007;-73
2024/01/24 14:24:11;;;;;;;23.92;8.40;;;16.40;99.90;;;;;;4595597;19;20055;-72
2024/01/24 14:25:46;;;;;;;19.27;9.30;;;16.40;99.90;;;;;;4594461;19;20211;-71
2024/01/24 14:27:24;;;;;;;20.13;7.95;;;16.40;99.90;;;;;;4595209;19;20006;-73
2024/01/24 14:28:58;;;;;;;22.42;8.05;;;16.40;99.90;;;;;;4593910;19;20024;-73
2024/01/24 14:30:33;;;;;;;20.00;7.68;;;16.40;99.90;;;;;;4593909;19;20461;-73
2024/01/24 14:32:07;;;;;;;18.00;7.55;;;16.40;99.90;;;;;;4594735;19;19995;-72
2024/01/24 14:33:41;;;;;;;18.65;6.60;;;16.40;99.90;;;;;;4595142;19;20009;-72
2024/01/24 14:35:17;;;;;;;16.60;6.80;;;16.40;99.90;;;;;;4594721;19;20019;-73
2024/01/24 14:36:51;;;;;;;16.75;8.38;;;16.40;99.90;;;;;;4593700;19;20492;-72
2024/01/24 14:38:26;;;;;;;21.13;6.85;;;16.40;99.90;;;;;;4594561;19;20066;-72
2024/01/24 14:40:02;;;;;;;17.42;6.68;;;16.40;99.90;;;;;;4594674;19;20015;-72
2024/01/24 14:41:36;;;;;;;13.52;6.20;;;16.40;99.90;;;;;;4594939;19;20002;-72
2024/01/24 14:43:10;;;;;;;14.88;7.35;;;16.40;99.90;;;;;;4593820;19;20006;-72
2024/01/24 14:44:46;;;;;;;20.48;7.63;;;16.30;99.90;;;;;;4594502;19;20032;-72
2024/01/24 14:46:21;;;;;;;12.85;7.15;;;16.40;99.90;;;;;;4593551;19;20018;-72
2024/01/24 14:47:55;;;;;;;14.80;6.93;;;16.30;99.90;;;;;;4594806;19;20005;-72
2024/01/24 14:49:31;;;;;;;14.00;6.25;;;16.30;99.90;;;;;;4594730;19;20003;-72
2024/01/24 14:51:06;;;;;;;13.95;6.68;;;16.30;99.90;;;;;;4594746;19;19998;-72
2024/01/24 14:52:40;;;;;;;29.10;6.88;;;16.30;99.90;;;;;;4594987;19;20020;-72
2024/01/24 14:54:15;;;;;;;15.40;6.25;;;16.30;99.90;;;;;;4594775;19;20440;-72
2024/01/24 14:55:50;;;;;;;13.68;5.75;;;16.30;99.90;;;;;;4593848;19;20089;-72
2024/01/24 14:57:24;;;;;;;17.85;6.25;;;16.30;99.90;;;;;;4594619;19;20003;-72
2024/01/24 14:59:01;;;;;;;14.27;6.10;;;16.30;99.90;;;;;;4594647;19;20017;-72
2024/01/24 15:05:36;;;;;;;12.68;5.38;;;16.20;99.90;;;;;;4560572;19;20007;-73
2024/01/24 15:07:12;;;;;;;12.70;5.35;;;16.20;99.90;;;;;;4594337;19;20010;-72
2024/01/24 15:08:46;;;;;;;15.70;6.10;;;16.20;99.90;;;;;;4594631;19;20306;-72
2024/01/24 15:10:22;;;;;;;19.67;6.25;;;16.20;99.90;;;;;;4594287;19;20023;-72
2024/01/24 15:11:57;;;;;;;22.02;5.78;;;16.20;99.90;;;;;;4594732;19;20023;-71
2024/01/24 15:13:32;;;;;;;10.93;5.63;;;16.10;99.90;;;;;;4594267;19;20070;-72
2024/01/24 15:15:08;;;;;;;12.07;5.65;;;16.10;99.90;;;;;;4593033;19;20003;-72
2024/01/24 15:16:43;;;;;;;12.40;5.70;;;16.10;99.90;;;;;;4593921;19;20013;-71
2024/01/24 15:18:19;;;;;;;12.10;5.50;;;16.10;99.90;;;;;;4594506;19;20002;-72
2024/01/24 15:19:53;;;;;;;10.85;5.00;;;16.10;99.90;;;;;;4593700;19;20006;-72
2024/01/24 15:21:30;;;;;;;12.85;4.72;;;16.10;99.90;;;;;;4594209;19;20006;-72
2024/01/24 15:23:04;;;;;;;15.15;4.82;;;16.10;99.90;;;;;;4594330;19;20009;-72
2024/01/24 15:24:38;;;;;;;13.93;5.43;;;16.10;99.90;;;;;;4594112;19;20005;-72
2024/01/24 15:26:13;;;;;;;11.75;5.75;;;16.10;99.90;;;;;;4592931;19;20008;-72
2024/01/24 15:27:47;;;;;;;13.50;5.28;;;16.10;99.90;;;;;;4594044;19;20437;-72
2024/01/24 15:29:21;;;;;;;11.52;5.03;;;16.00;99.90;;;;;;4594173;19;20444;-72
2024/01/24 15:30:57;;;;;;;14.48;5.40;;;16.00;99.90;;;;;;4594010;19;20005;-72
2024/01/24 15:32:30;;;;;;;9.95;5.18;;;16.00;99.90;;;;;;4593792;19;20002;-72
2024/01/24 15:34:04;;;;;;;9.90;5.03;;;16.00;99.90;;;;;;4594102;19;20425;-72
2024/01/24 15:35:40;;;;;;;13.10;4.90;;;16.00;99.90;;;;;;4593441;19;20002;-72
2024/01/24 15:37:14;;;;;;;9.63;4.53;;;16.00;99.90;;;;;;4594058;19;20421;-72
2024/01/24 15:38:51;;;;;;;12.75;5.07;;;16.00;99.90;;;;;;4593751;19;20007;-72
2024/01/24 15:40:27;;;;;;;10.73;4.65;;;15.90;99.90;;;;;;4592929;19;20027;-72
2024/01/24 15:42:08;;;;;;;9.27;4.32;;;15.90;99.90;;;;;;4593680;19;20009;-72
2024/01/24 15:43:43;;;;;;;10.13;4.28;;;15.90;99.90;;;;;;4593816;19;19998;-72
2024/01/24 15:45:24;;;;;;;10.60;4.95;;;15.90;99.90;;;;;;4591977;19;20018;-72
2024/01/24 15:46:58;;;;;;;11.68;4.18;;;15.90;99.90;;;;;;4592617;19;20084;-72
2024/01/24 15:48:32;;;;;;;10.70;4.35;;;15.90;99.90;;;;;;4593221;19;20002;-72
2024/01/24 15:50:07;;;;;;;10.25;4.50;;;15.90;99.90;;;;;;4594065;19;20015;-72
2024/01/24 15:51:41;;;;;;;9.70;4.72;;;15.90;99.90;;;;;;4593436;19;20429;-72
2024/01/24 15:53:15;;;;;;;10.45;5.05;;;15.90;99.90;;;;;;4593454;19;20066;-72
2024/01/24 15:54:51;;;;;;;8.25;4.13;;;15.90;99.90;;;;;;4593755;19;20013;-72
2024/01/24 15:56:26;;;;;;;8.68;3.83;;;15.90;99.90;;;;;;4592284;19;20029;-72
2024/01/24 15:58:01;;;;;;;9.45;4.43;;;15.90;99.90;;;;;;4593281;19;20010;-72
2024/01/24 15:59:37;;;;;;;11.07;4.93;;;15.80;99.90;;;;;;4593290;19;20007;-72
2024/01/24 16:01:11;;;;;;;8.88;3.90;;;15.80;99.90;;;;;;4593266;19;20010;-72
2024/01/24 16:02:45;;;;;;;9.57;4.55;;;15.80;99.90;;;;;;4593208;19;20006;-74
2024/01/24 16:04:20;;;;;;;9.98;4.75;;;15.80;99.90;;;;;;4593248;19;20348;-72
2024/01/24 16:05:54;;;;;;;11.10;3.95;;;15.80;99.90;;;;;;4591990;19;20021;-73
2024/01/24 16:07:28;;;;;;;8.77;4.60;;;15.80;99.90;;;;;;4593227;19;20005;-72
2024/01/24 16:09:04;;;;;;;10.70;4.97;;;15.80;99.90;;;;;;4593179;19;20002;-73
2024/01/24 16:10:38;;;;;;;10.77;5.40;;;15.90;99.90;;;;;;4593125;19;19999;-72
2024/01/24 16:12:12;;;;;;;11.77;5.43;;;15.90;99.90;;;;;;4591693;19;19999;-73
2024/01/24 16:13:50;;;;;;;11.95;5.28;;;15.90;99.90;;;;;;4592823;19;20426;-72
2024/01/24 16:15:24;;;;;;;12.93;5.80;;;16.00;99.90;;;;;;4592746;19;20066;-74
2024/01/24 16:16:58;;;;;;;11.05;4.72;;;16.10;99.90;;;;;;4593009;19;20003;-73
2024/01/24 16:18:34;;;;;;;17.25;4.53;;;16.10;99.90;;;;;;4593044;19;20476;-73
2024/01/24 16:20:10;;;;;;;10.15;4.22;;;16.10;99.90;;;;;;4590868;19;20512;-73
2024/01/24 16:21:48;;;;;;;9.45;3.90;;;16.20;99.90;;;;;;4592668;19;20006;-73
2024/01/24 16:23:24;;;;;;;10.68;4.47;;;16.20;99.90;;;;;;4593240;19;20002;-73
2024/01/24 16:24:58;;;;;;;8.63;3.63;;;16.30;99.90;;;;;;4592833;19;20002;-76
2024/01/24 16:26:32;;;;;;;8.55;4.10;;;16.30;99.90;;;;;;4590288;19;20006;-73
2024/01/24 16:28:08;;;;;;;7.38;3.72;;;16.30;99.90;;;;;;4592386;19;20433;-73
2024/01/24 16:29:43;;;;;;;8.25;3.42;;;16.30;99.90;;;;;;4593019;19;20009;-73
2024/01/24 16:31:17;;;;;;;9.48;4.10;;;16.40;99.90;;;;;;4593022;19;20006;-73
2024/01/24 16:32:55;;;;;;;8.35;3.58;;;16.40;99.90;;;;;;4592763;19;20429;-73
2024/01/24 16:34:30;;;;;;;9.85;4.50;;;16.40;99.90;;;;;;4592633;19;20074;-73
2024/01/24 16:36:05;;;;;;;11.50;4.50;;;16.40;99.90;;;;;;4591846;19;20006;-73
2024/01/24 16:37:40;;;;;;;10.45;4.13;;;16.40;99.90;;;;;;4592923;19;20317;-73
2024/01/24 16:39:20;;;;;;;11.80;4.40;;;16.40;99.90;;;;;;4591473;19;20036;-73
2024/01/24 16:40:55;;;;;;;10.45;3.95;;;16.40;99.90;;;;;;4591841;19;20425;-72
2024/01/24 16:42:30;;;;;;;9.85;3.92;;;16.40;99.90;;;;;;4592589;19;20011;-73
2024/01/24 16:44:05;;;;;;;8.60;3.42;;;16.40;99.90;;;;;;4592462;19;20002;-73
2024/01/24 16:45:40;;;;;;;9.52;4.20;;;16.40;99.90;;;;;;4591973;19;20417;-72
2024/01/24 16:47:17;;;;;;;10.32;4.18;;;16.40;99.90;;;;;;4592567;19;20078;-72
2024/01/24 16:48:54;;;;;;;8.77;4.07;;;16.40;99.90;;;;;;4592638;19;20002;-72
2024/01/24 16:50:30;;;;;;;8.25;3.90;;;16.40;99.90;;;;;;4592505;19;19999;-72
2024/01/24 16:52:05;;;;;;;12.50;4.57;;;16.30;99.90;;;;;;4592429;19;20003;-72
2024/01/24 16:53:40;;;;;;;8.38;3.78;;;16.30;99.90;;;;;;4592587;19;20009;-72
2024/01/24 16:55:15;;;;;;;7.18;3.75;;;16.30;99.90;;;;;;4592356;19;19998;-72
2024/01/24 16:56:50;;;;;;;9.30;3.83;;;16.30;99.90;;;;;;4591011;19;20007;-72
2024/01/24 16:58:25;;;;;;;11.40;3.95;;;16.30;99.90;;;;;;4592169;19;20421;-72
2024/01/24 17:00:00;;;;;;;9.98;3.70;;;16.30;99.90;;;;;;4590707;19;20003;-72
2024/01/24 17:01:36;;;;;;;7.78;3.72;;;16.30;99.90;;;;;;4591804;19;20340;-74
2024/01/24 17:03:11;;;;;;;8.50;4.00;;;16.30;99.90;;;;;;4592348;19;20424;-73
2024/01/24 17:04:45;;;;;;;9.25;3.92;;;16.30;99.90;;;;;;4592366;19;20000;-73
2024/01/24 17:06:21;;;;;;;8.68;4.20;;;16.30;99.90;;;;;;4590914;19;20019;-73
2024/01/24 17:07:55;;;;;;;9.38;4.32;;;16.30;99.90;;;;;;4592057;19;20002;-73
2024/01/24 17:09:31;;;;;;;8.32;3.75;;;16.20;99.90;;;;;;4592333;19;19999;-73
2024/01/24 17:11:07;;;;;;;10.27;3.95;;;16.30;99.90;;;;;;4592344;19;20075;-73
2024/01/24 17:12:42;;;;;;;9.55;3.97;;;16.20;99.90;;;;;;4591966;19;20003;-72
2024/01/24 17:14:17;;;;;;;9.05;4.13;;;16.20;99.90;;;;;;4592118;19;19999;-72
2024/01/24 17:15:53;;;;;;;9.52;3.75;;;16.20;99.90;;;;;;4591523;19;20025;-73
2024/01/24 17:17:27;;;;;;;5.75;3.50;;;16.20;99.90;;;;;;4592069;19;20002;-73
2024/01/24 17:19:01;;;;;;;7.32;3.20;;;16.20;99.90;;;;;;4592189;19;20066;-73
2024/01/24 17:20:37;;;;;;;9.20;4.22;;;16.20;99.90;;;;;;4591027;19;20006;-73
2024/01/24 17:22:12;;;;;;;8.75;3.58;;;16.20;99.90;;;;;;4590442;19;20002;-72
2024/01/24 17:23:47;;;;;;;8.65;3.60;;;16.20;99.90;;;;;;4594121;19;19999;-73
2024/01/24 17:25:23;;;;;;;9.60;3.45;;;16.10;99.90;;;;;;4596395;19;20328;-73
2024/01/24 17:26:58;;;;;;;8.32;3.97;;;16.20;99.90;;;;;;4596363;19;20043;-73
2024/01/24 17:28:33;;;;;;;8.98;4.07;;;16.20;99.90;;;;;;4596674;19;20013;-73
2024/01/24 17:30:10;;;;;;;8.15;3.60;;;16.20;99.90;;;;;;4596678;19;20018;-74
2024/01/24 17:31:45;;;;;;;9.13;3.55;;;16.20;99.90;;;;;;4596346;19;20013;-73
2024/01/24 17:33:20;;;;;;;9.45;4.07;;;16.30;99.90;;;;;;4596339;19;20493;-72
2024/01/24 17:34:56;;;;;;;6.93;3.08;;;16.40;99.90;;;;;;4596628;19;20352;-74
2024/01/24 17:36:30;;;;;;;7.43;3.25;;;16.50;99.90;;;;;;4594681;19;20010;-73
2024/01/24 17:38:05;;;;;;;8.65;4.32;;;16.60;99.90;;;;;;4596286;19;20003;-72
2024/01/24 17:39:41;;;;;;;8.88;3.33;;;16.80;99.90;;;;;;4596098;19;20010;-72
2024/01/24 17:41:15;;;;;;;6.18;2.92;;;16.90;99.90;;;;;;4596421;19;20005;-73
2024/01/24 17:42:50;;;;;;;9.32;3.67;;;17.00;99.90;;;;;;4596389;19;20006;-73
2024/01/24 17:44:26;;;;;;;6.82;2.85;;;17.10;99.90;;;;;;4596189;19;20014;-72
2024/01/24 17:46:01;;;;;;;9.93;3.47;;;17.20;99.90;;;;;;4595187;19;20007;-73
2024/01/24 17:47:35;;;;;;;9.85;3.38;;;17.30;99.90;;;;;;4595954;19;20010;-73
2024/01/24 17:49:11;;;;;;;12.15;3.33;;;17.30;99.90;;;;;;4596114;19;19998;-73
2024/01/24 17:50:46;;;;;;;11.45;3.70;;;17.40;99.90;;;;;;4595983;19;20005;-74
2024/01/24 17:52:20;;;;;;;13.27;3.92;;;17.40;99.90;;;;;;4595987;19;20018;-73
2024/01/24 17:53:56;;;;;;;16.23;4.60;;;17.50;99.90;;;;;;4595983;19;20024;-72
2024/01/24 17:55:31;;;;;;;13.20;4.93;;;17.50;99.90;;;;;;4595344;19;20173;-73
2024/01/24 17:57:05;;;;;;;19.00;4.53;;;17.50;99.90;;;;;;4595867;19;20035;-72
2024/01/24 17:58:41;;;;;;;12.10;4.05;;;17.50;99.90;;;;;;4595885;19;20013;-73
2024/01/24 18:00:15;;;;;;;13.45;4.32;;;17.50;99.90;;;;;;4595047;19;20009;-74
2024/01/24 18:01:51;;;;;;;18.98;4.82;;;17.50;99.90;;;;;;4595773;19;20015;-74
2024/01/24 18:03:26;;;;;;;14.68;4.25;;;17.50;99.90;;;;;;4594503;19;20015;-73
2024/01/24 18:05:01;;;;;;;12.88;4.00;;;17.50;99.90;;;;;;4594614;19;20011;-74
2024/01/24 18:06:36;;;;;;;18.17;4.50;;;17.50;99.90;;;;;;4593324;19;20020;-74
2024/01/24 18:08:12;;;;;;;9.70;4.40;;;17.50;99.90;;;;;;4595725;19;20025;-73
2024/01/24 18:09:47;;;;;;;16.63;3.75;;;17.50;99.90;;;;;;4595605;19;20003;-74
2024/01/24 18:11:21;;;;;;;16.42;4.90;;;17.50;99.90;;;;;;4595809;19;20367;-73
2024/01/24 18:12:58;;;;;;;11.35;4.45;;;17.50;99.90;;;;;;4595529;19;20003;-73
2024/01/24 18:14:34;;;;;;;14.98;4.20;;;17.50;99.90;;;;;;4595431;19;20462;-73
2024/01/24 18:16:08;;;;;;;19.35;4.57;;;17.50;99.90;;;;;;4594228;19;20025;-74
2024/01/24 18:17:43;;;;;;;11.82;4.32;;;17.50;99.90;;;;;;4595533;19;20069;-73
2024/01/24 18:19:17;;;;;;;15.57;4.03;;;17.50;99.90;;;;;;4593912;19;20466;-74
2024/01/24 18:20:51;;;;;;;14.18;4.15;;;17.50;99.90;;;;;;4593873;19;20505;-74
2024/01/24 18:22:26;;;;;;;13.75;5.35;;;17.50;99.90;;;;;;4595334;19;20325;-73
2024/01/24 18:24:00;;;;;;;10.75;4.18;;;17.50;99.90;;;;;;4595269;19;19995;-73
2024/01/24 18:25:34;;;;;;;13.55;4.00;;;17.50;99.90;;;;;;4594667;19;20007;-74
2024/01/24 18:27:11;;;;;;;10.70;4.35;;;17.50;99.90;;;;;;4595322;19;20025;-74
2024/01/24 18:28:46;;;;;;;13.38;3.95;;;17.50;99.90;;;;;;4595313;19;20002;-74
2024/01/24 18:30:23;;;;;;;9.60;4.05;;;17.50;99.90;;;;;;4595236;19;20119;-74
2024/01/24 18:31:58;;;;;;;10.88;4.05;;;17.60;99.90;;;;;;4593940;19;20007;-74
2024/01/24 18:33:32;;;;;;;9.98;3.75;;;17.60;99.90;;;;;;4593756;19;20002;-75
2024/01/24 18:35:06;;;;;;;11.00;3.67;;;17.70;99.90;;;;;;4592076;19;20024;-75
2024/01/24 18:36:42;;;;;;;8.82;3.47;;;17.80;99.90;;;;;;4594025;19;20438;-74
2024/01/24 18:38:18;;;;;;;9.25;4.43;;;17.90;99.90;;;;;;4594699;19;20425;-75
2024/01/24 18:39:52;;;;;;;12.90;3.75;;;17.90;99.90;;;;;;4593280;19;20034;-74
2024/01/24 18:41:27;;;;;;;13.80;3.83;;;18.00;99.90;;;;;;4594704;19;20026;-74
2024/01/24 18:43:01;;;;;;;16.65;4.38;;;18.00;99.90;;;;;;4593578;19;20009;-74
2024/01/24 18:44:35;;;;;;;14.00;4.22;;;18.10;99.90;;;;;;4594836;19;20367;-74
2024/01/24 18:46:11;;;;;;;15.00;4.20;;;18.10;99.90;;;;;;4593610;19;20070;-75
2024/01/24 18:47:47;;;;;;;11.27;3.78;;;18.20;99.90;;;;;;4593478;19;20007;-74
2024/01/24 18:49:21;;;;;;;9.73;3.22;;;18.20;99.90;;;;;;4595208;19;20010;-74
2024/01/24 18:50:56;;;;;;;9.52;3.15;;;18.30;99.90;;;;;;4593585;19;20006;-74
2024/01/24 18:52:30;;;;;;;10.80;3.55;;;18.30;99.90;;;;;;4594449;19;19998;-74
2024/01/24 18:54:04;;;;;;;11.40;3.70;;;18.40;99.90;;;;;;4593337;19;20073;-74
2024/01/24 18:55:39;;;;;;;9.75;3.90;;;18.40;99.90;;;;;;4593751;19;20002;-74
2024/01/24 18:57:13;;;;;;;12.52;3.83;;;18.50;99.90;;;;;;4594613;19;20002;-74
2024/01/24 18:58:49;;;;;;;12.10;4.47;;;18.60;99.90;;;;;;4594610;19;20016;-75
2024/01/24 19:00:24;;;;;;;9.57;3.42;;;18.60;99.90;;;;;;4593992;19;20007;-74
2024/01/24 19:01:58;;;;;;;10.30;3.97;;;18.70;99.90;;;;;;4594886;19;20005;-75
2024/01/24 19:03:32;;;;;;;9.82;4.05;;;18.70;99.90;;;;;;4594852;19;20453;-74
2024/01/24 19:05:07;;;;;;;9.52;3.45;;;18.80;99.90;;;;;;4594437;19;20460;-74
2024/01/24 19:06:41;;;;;;;9.48;3.67;;;18.80;99.90;;;;;;4592891;19;20457;-74
2024/01/24 19:08:16;;;;;;;8.90;3.55;;;18.90;99.90;;;;;;4594661;19;20073;-74
2024/01/24 19:09:52;;;;;;;9.35;3.42;;;18.90;99.90;;;;;;4594872;19;20010;-74
2024/01/24 19:11:26;;;;;;;6.32;2.90;;;18.80;99.90;;;;;;4594637;19;20006;-74
2024/01/24 19:13:00;;;;;;;11.10;3.58;;;18.80;99.90;;;;;;4594253;19;19995;-74
2024/01/24 19:14:36;;;;;;;7.72;3.22;;;18.80;99.90;;;;;;4594296;19;20006;-74
2024/01/24 19:16:10;;;;;;;8.13;3.22;;;18.70;99.90;;;;;;4591882;19;20006;-74
2024/01/24 19:17:44;;;;;;;10.57;3.53;;;18.70;99.90;;;;;;4593802;19;20025;-74
2024/01/24 19:19:20;;;;;;;9.43;3.97;;;18.60;99.90;;;;;;4594269;19;19998;-74
2024/01/24 19:20:56;;;;;;;13.82;3.72;;;18.60;99.90;;;;;;4592861;19;20010;-74
2024/01/24 19:22:30;;;;;;;8.25;3.60;;;18.60;99.90;;;;;;4594045;19;20007;-74
2024/01/24 19:24:06;;;;;;;8.70;3.63;;;18.50;99.90;;;;;;4592978;19;20006;-74
2024/01/24 19:25:40;;;;;;;7.57;3.25;;;18.40;99.90;;;;;;4593012;19;20385;-74
2024/01/24 19:27:16;;;;;;;8.07;2.97;;;18.40;99.90;;;;;;4591638;19;19999;-74
2024/01/24 19:28:51;;;;;;;8.00;2.92;;;18.30;99.90;;;;;;4593522;19;20021;-74
2024/01/24 19:30:27;;;;;;;7.78;3.22;;;18.20;99.90;;;;;;4593920;19;20007;-74
2024/01/24 19:32:03;;;;;;;8.88;3.45;;;18.20;99.90;;;;;;4593960;19;20006;-74
2024/01/24 19:33:38;;;;;;;9.20;2.88;;;18.20;99.90;;;;;;4594224;19;20382;-74
2024/01/24 19:35:12;;;;;;;9.00;2.95;;;18.10;99.90;;;;;;4593844;19;20003;-74
2024/01/24 19:36:46;;;;;;;10.35;3.45;;;18.10;99.90;;;;;;4593767;19;20015;-74
2024/01/24 19:38:21;;;;;;;7.88;3.30;;;18.00;99.90;;;;;;4593722;19;19999;-75
2024/01/24 19:39:55;;;;;;;6.35;2.47;;;18.00;99.90;;;;;;4593439;19;20074;-74
2024/01/24 19:41:31;;;;;;;11.80;4.05;;;17.90;99.90;;;;;;4593721;19;20340;-74
2024/01/24 19:43:07;;;;;;;6.22;3.05;;;17.80;99.90;;;;;;4592439;19;20002;-74
2024/01/24 19:44:41;;;;;;;9.50;3.70;;;17.70;99.90;;;;;;4593373;19;20010;-74
2024/01/24 19:46:15;;;;;;;8.55;3.42;;;17.70;99.90;;;;;;4591692;19;20025;-74
2024/01/24 19:47:50;;;;;;;6.93;3.58;;;17.60;99.90;;;;;;4593663;19;20291;-74
2024/01/24 19:49:24;;;;;;;7.28;3.03;;;17.60;99.90;;;;;;4593574;19;20006;-74
2024/01/24 19:50:58;;;;;;;8.18;3.60;;;17.50;99.90;;;;;;4593563;19;20062;-74
2024/01/24 19:52:36;;;;;;;8.60;3.13;;;17.50;99.90;;;;;;4592463;19;20310;-74
2024/01/24 19:54:10;;;;;;;7.78;3.20;;;17.40;99.90;;;;;;4593498;19;20426;-74
2024/01/24 19:55:45;;;;;;;9.32;4.25;;;17.40;99.90;;;;;;4591502;19;20002;-74
2024/01/24 19:57:20;;;;;;;11.63;3.30;;;17.40;99.90;;;;;;4593427;19;20286;-74
2024/01/24 19:58:55;;;;;;;6.90;3.63;;;17.30;99.90;;;;;;4593575;19;20348;-74
2024/01/24 20:00:30;;;;;;;13.50;3.67;;;17.30;99.90;;;;;;4591345;19;20433;-74
2024/01/24 20:02:05;;;;;;;11.93;3.90;;;17.20;99.90;;;;;;4592293;19;20086;-74
2024/01/24 20:03:40;;;;;;;10.63;4.05;;;17.20;99.90;;;;;;4592905;19;20022;-74
2024/01/24 20:05:14;;;;;;;8.50;3.47;;;17.20;99.90;;;;;;4591453;19;20014;-74
2024/01/24 20:06:49;;;;;;;9.95;4.13;;;17.10;99.90;;;;;;4592840;19;20010;-74
2024/01/24 20:08:25;;;;;;;8.63;3.40;;;17.10;99.90;;;;;;4593922;19;20011;-74
2024/01/24 20:10:02;;;;;;;10.25;3.65;;;17.00;99.90;;;;;;4593198;19;20006;-74
2024/01/24 20:11:37;;;;;;;6.57;2.70;;;17.00;99.90;;;;;;4593172;19;20066;-74
2024/01/24 20:13:15;;;;;;;9.65;3.33;;;17.00;99.90;;;;;;4593125;19;20469;-73
2024/01/24 20:14:49;;;;;;;7.75;2.85;;;17.00;99.90;;;;;;4591766;19;20006;-74
2024/01/24 20:16:24;;;;;;;11.32;3.38;;;17.00;99.90;;;;;;4591849;19;20019;-74
2024/01/24 20:17:59;;;;;;;9.75;2.97;;;16.90;99.90;;;;;;4591710;19;20177;-74
2024/01/24 20:19:33;;;;;;;8.73;3.33;;;16.90;99.90;;;;;;4591519;19;20061;-74
2024/01/24 20:21:08;;;;;;;7.88;3.42;;;16.90;99.90;;;;;;4591511;19;20069;-74
2024/01/24 20:22:42;;;;;;;8.32;2.67;;;16.80;99.90;;;;;;4592834;19;20006;-75
2024/01/24 20:24:18;;;;;;;9.80;2.95;;;16.80;99.90;;;;;;4592702;19;20002;-74
2024/01/24 20:25:53;;;;;;;8.02;2.85;;;16.80;99.90;;;;;;4590830;19;20102;-75
2024/01/24 20:27:27;;;;;;;11.52;3.33;;;16.80;99.90;;;;;;4591315;19;20333;-74
2024/01/24 20:29:02;;;;;;;10.73;3.55;;;16.80;99.90;;;;;;4592586;19;20426;-74
2024/01/24 20:30:37;;;;;;;8.90;3.10;;;16.80;99.90;;;;;;4591389;19;20073;-74
2024/01/24 20:32:11;;;;;;;8.40;3.05;;;16.80;99.90;;;;;;4592566;19;20077;-74
2024/01/24 20:33:45;;;;;;;6.25;2.30;;;16.80;99.90;;;;;;4592839;19;20461;-74
2024/01/24 20:35:22;;;;;;;7.45;2.97;;;16.80;99.90;;;;;;4592287;19;20011;-74
2024/01/24 20:36:56;;;;;;;6.75;3.40;;;16.80;99.90;;;;;;4592525;19;20446;-74
2024/01/24 20:38:31;;;;;;;7.72;2.83;;;16.80;99.90;;;;;;4592783;19;20006;-74
2024/01/24 20:40:06;;;;;;;6.00;2.58;;;16.80;99.90;;;;;;4590996;19;20002;-74
2024/01/24 20:41:41;;;;;;;10.65;3.83;;;16.80;99.90;;;;;;4592426;19;20002;-74
2024/01/24 20:43:15;;;;;;;5.82;2.50;;;16.90;99.90;;;;;;4591158;19;20002;-74
2024/01/24 20:44:50;;;;;;;5.22;2.58;;;16.90;99.90;;;;;;4592108;19;20009;-74
2024/01/24 20:46:24;;;;;;;6.22;2.35;;;16.90;99.90;;;;;;4591370;19;20002;-74
2024/01/24 20:47:58;;;;;;;5.55;2.50;;;16.90;99.90;;;;;;4592718;19;20025;-74
2024/01/24 20:49:46;;;;;;;7.10;2.75;;;16.90;99.90;;;;;;4592668;19;20075;-74
2024/01/24 20:51:22;;;;;;;6.20;2.42;;;16.90;99.90;;;;;;4592365;19;20006;-74
2024/01/24 20:52:56;;;;;;;5.65;2.22;;;17.00;99.90;;;;;;4592471;19;20066;-74
2024/01/24 20:54:31;;;;;;;6.88;2.63;;;17.00;99.90;;;;;;4592488;19;20039;-74
2024/01/24 20:56:05;;;;;;;5.15;2.50;;;17.00;99.90;;;;;;4591441;19;20013;-74
2024/01/24 20:57:39;;;;;;;6.35;2.50;;;17.00;99.90;;;;;;4591493;19;19998;-74
2024/01/24 20:59:15;;;;;;;7.28;3.10;;;17.00;99.90;;;;;;4591889;19;20011;-74
2024/01/24 21:00:49;;;;;;;5.40;2.00;;;17.10;99.90;;;;;;4590074;19;20385;-74
2024/01/24 21:02:23;;;;;;;5.10;2.58;;;17.10;99.90;;;;;;4591971;19;20002;-74
2024/01/24 21:03:58;;;;;;;6.32;2.80;;;17.10;99.90;;;;;;4592117;19;20006;-74
2024/01/24 21:05:32;;;;;;;5.97;2.78;;;17.10;99.90;;;;;;4590189;19;20109;-74
2024/01/24 21:07:06;;;;;;;5.47;2.58;;;17.10;99.90;;;;;;4591880;19;19999;-74
2024/01/24 21:08:41;;;;;;;8.55;3.00;;;17.20;99.90;;;;;;4592282;19;20301;-74
2024/01/24 21:10:16;;;;;;;5.25;2.42;;;17.20;99.90;;;;;;4591963;19;19998;-74
2024/01/24 21:11:50;;;;;;;6.78;3.30;;;17.20;99.90;;;;;;4591886;19;20002;-74
2024/01/24 21:13:26;;;;;;;7.45;2.47;;;17.20;99.90;;;;;;4591892;19;20010;-74
2024/01/24 21:15:01;;;;;;;4.80;1.98;;;17.20;99.90;;;;;;4592196;19;20003;-74
2024/01/24 21:16:35;;;;;;;5.97;2.58;;;17.20;99.90;;;;;;4590911;19;20010;-74
2024/01/24 21:18:10;;;;;;;8.07;3.00;;;17.20;99.90;;;;;;4591969;19;20003;-74
2024/01/24 21:19:44;;;;;;;5.30;2.15;;;17.20;99.90;;;;;;4592062;19;20002;-74
2024/01/24 21:21:18;;;;;;;6.95;3.22;;;17.20;99.90;;;;;;4590629;19;20006;-74
2024/01/24 21:22:53;;;;;;;5.68;2.20;;;17.20;99.90;;;;;;4590422;19;20010;-74
2024/01/24 21:24:28;;;;;;;5.60;2.30;;;17.30;99.90;;;;;;4591658;19;19999;-74
2024/01/24 21:26:01;;;;;;;5.35;2.25;;;17.30;99.90;;;;;;4590899;19;20026;-74
2024/01/24 21:27:37;;;;;;;5.70;2.53;;;17.30;99.90;;;;;;4591742;19;20017;-74
2024/01/24 21:29:12;;;;;;;4.20;2.13;;;17.30;99.90;;;;;;4591660;19;20013;-74
2024/01/24 21:30:46;;;;;;;4.70;2.08;;;17.30;99.90;;;;;;4591615;19;19999;-74
2024/01/24 21:32:22;;;;;;;5.55;1.92;;;17.30;99.90;;;;;;4591718;19;20010;-74
2024/01/24 21:33:57;;;;;;;4.80;2.00;;;17.30;99.90;;;;;;4591849;19;20002;-74
2024/01/24 21:35:30;;;;;;;4.68;2.08;;;17.30;99.90;;;;;;4591370;19;20003;-74
2024/01/24 21:37:07;;;;;;;3.80;2.00;;;17.30;99.90;;;;;;4591407;19;20006;-74
2024/01/24 21:38:41;;;;;;;5.45;2.42;;;17.30;99.90;;;;;;4591992;19;20069;-74
2024/01/24 21:40:15;;;;;;;4.43;2.10;;;17.30;99.90;;;;;;4590999;19;20009;-74
2024/01/24 21:41:51;;;;;;;4.28;1.85;;;17.30;99.90;;;;;;4591762;19;20021;-74
2024/01/24 21:43:25;;;;;;;5.68;2.63;;;17.30;99.90;;;;;;4591434;19;19998;-74
2024/01/24 21:44:59;;;;;;;3.72;1.77;;;17.30;99.90;;;;;;4591443;19;20025;-74
2024/01/24 21:46:36;;;;;;;4.80;2.55;;;17.40;99.90;;;;;;4591394;19;20307;-74
2024/01/24 21:48:10;;;;;;;4.50;1.98;;;17.40;99.90;;;;;;4590081;19;20002;-74
2024/01/24 21:49:44;;;;;;;4.90;1.75;;;17.40;99.90;;;;;;4590966;19;20066;-74
2024/01/24 21:51:19;;;;;;;6.40;2.75;;;17.40;99.90;;;;;;4591401;19;19998;-74
2024/01/24 21:52:56;;;;;;;5.13;2.35;;;17.40;99.90;;;;;;4589962;19;20477;-74
2024/01/24 21:54:30;;;;;;;4.32;1.70;;;17.40;99.90;;;;;;4591015;19;20010;-74
2024/01/24 21:56:06;;;;;;;4.78;2.40;;;17.40;99.90;;;;;;4589010;19;20026;-74
2024/01/24 21:57:42;;;;;;;4.70;2.17;;;17.40;99.90;;;;;;4591106;19;20435;-74
2024/01/24 21:59:16;;;;;;;6.10;2.08;;;17.40;99.90;;;;;;4590235;19;20006;-74
2024/01/24 22:00:51;;;;;;;3.53;1.60;;;17.40;99.90;;;;;;4590020;19;20310;-74
2024/01/24 22:02:27;;;;;;;3.65;1.67;;;17.40;99.90;;;;;;4591123;19;20022;-74